Time;durP1;ratioP1;P1;durP2;ratioP2;P2;SDS_P1;SDS_P2;PMS_P1;PMS_P2;Temp;Humidity;BMP_temperature;BMP_pressure;BME280_temperature;BME280_humidity;BME280_pressure;Samples;Min_cycle;Max_cycle;Signal;HPM_P1;HPM_P2
2022/06/15 00:01:15;;;;;;;7.70;3.85;;;17.00;99.90;;;;;;4994567;28;20570;-55
2022/06/15 00:03:41;;;;;;;10.70;4.32;;;16.90;99.90;;;;;;4994573;28;20179;-55
2022/06/15 00:06:19;;;;;;;9.52;5.18;;;16.90;99.90;;;;;;4994528;28;20173;-56
2022/06/15 00:08:47;;;;;;;8.35;4.78;;;16.90;99.90;;;;;;4994590;28;20251;-56
2022/06/15 00:11:15;;;;;;;7.63;3.75;;;16.80;99.90;;;;;;4994461;28;20164;-55
2022/06/15 00:13:41;;;;;;;13.00;5.03;;;16.90;99.90;;;;;;4994677;28;20644;-55
2022/06/15 00:16:07;;;;;;;4.70;3.70;;;16.70;99.90;;;;;;4994504;28;20588;-55
2022/06/15 00:18:34;;;;;;;7.15;4.32;;;16.60;99.90;;;;;;4994632;28;20176;-55
2022/06/15 00:21:00;;;;;;;9.27;4.55;;;16.50;99.90;;;;;;4994234;28;20284;-55
2022/06/15 00:23:28;;;;;;;6.60;4.85;;;16.50;99.90;;;;;;4994073;28;20611;-55
2022/06/15 00:25:54;;;;;;;8.13;4.47;;;16.60;99.90;;;;;;4993918;28;20538;-56
2022/06/15 00:28:21;;;;;;;8.23;4.40;;;16.60;99.90;;;;;;4994163;28;20171;-56
2022/06/15 00:30:51;;;;;;;6.47;5.15;;;16.50;99.90;;;;;;4994243;28;20181;-56
2022/06/15 00:33:19;;;;;;;4.90;4.03;;;16.60;99.90;;;;;;4994162;28;20622;-56
2022/06/15 00:35:57;;;;;;;6.43;4.03;;;16.60;99.90;;;;;;4994217;28;20223;-55
2022/06/15 00:38:31;;;;;;;7.57;3.78;;;16.60;99.90;;;;;;4994088;28;20574;-56
2022/06/15 00:40:58;;;;;;;9.18;4.72;;;16.50;99.90;;;;;;4993828;28;20298;-56
2022/06/15 00:43:36;;;;;;;6.82;5.20;;;16.40;99.90;;;;;;4993866;28;20183;-55
2022/06/15 00:46:27;;;;;;;8.77;4.53;;;16.50;99.90;;;;;;4994411;28;20187;-55
2022/06/15 00:48:58;;;;;;;8.65;4.47;;;16.40;99.90;;;;;;4993595;28;20209;-57
2022/06/15 00:51:25;;;;;;;8.80;4.55;;;16.40;99.90;;;;;;4993625;28;20600;-57
2022/06/15 00:53:52;;;;;;;11.68;4.50;;;16.30;99.90;;;;;;4994014;28;20160;-56
2022/06/15 00:56:19;;;;;;;8.57;4.28;;;16.20;99.90;;;;;;4993606;28;20165;-56
2022/06/15 00:58:50;;;;;;;9.18;4.50;;;16.30;99.90;;;;;;4993740;28;20172;-55
2022/06/15 01:01:15;;;;;;;6.25;4.35;;;16.30;99.90;;;;;;4993400;28;20209;-55
2022/06/15 01:03:42;;;;;;;7.15;4.10;;;16.20;99.90;;;;;;4993572;28;20172;-55
2022/06/15 01:06:41;;;;;;;8.13;4.28;;;16.20;99.90;;;;;;4993723;28;20181;-55
2022/06/15 01:09:20;;;;;;;5.15;3.72;;;16.10;99.90;;;;;;4969873;28;20181;-57
2022/06/15 01:12:01;;;;;;;6.68;4.40;;;16.10;99.90;;;;;;4993316;28;20701;-57
2022/06/15 01:14:41;;;;;;;7.80;4.90;;;16.00;99.90;;;;;;4993249;28;20712;-56
2022/06/15 01:17:52;;;;;;;4.55;3.50;;;15.90;99.90;;;;;;4993152;28;20243;-56
2022/06/15 01:20:36;;;;;;;5.88;3.60;;;15.90;99.90;;;;;;4979942;28;20228;-56
2022/06/15 01:23:52;;;;;;;5.95;4.70;;;15.80;99.90;;;;;;4993710;28;20169;-55
2022/06/15 01:26:23;;;;;;;6.07;4.43;;;15.70;99.90;;;;;;4984985;28;20315;-56
2022/06/15 01:28:56;;;;;;;6.43;4.15;;;15.60;99.90;;;;;;4975624;28;20709;-56
2022/06/15 01:31:54;;;;;;;5.50;4.28;;;15.60;99.90;;;;;;4993035;28;20172;-56
2022/06/15 01:34:34;;;;;;;8.50;4.50;;;15.50;99.90;;;;;;4992424;28;20188;-56
2022/06/15 01:37:23;;;;;;;6.10;4.30;;;15.60;99.90;;;;;;4992493;28;20183;-55
2022/06/15 01:39:56;;;;;;;4.93;3.90;;;15.60;99.90;;;;;;4992839;28;20217;-56
2022/06/15 01:42:39;;;;;;;10.82;5.32;;;15.60;99.90;;;;;;4992700;28;20646;-57
2022/06/15 01:45:10;;;;;;;6.82;4.70;;;15.60;99.90;;;;;;4992903;28;20169;-56
2022/06/15 01:47:37;;;;;;;10.65;4.25;;;15.60;99.90;;;;;;4992770;28;20724;-56
2022/06/15 01:50:16;;;;;;;10.68;4.88;;;15.50;99.90;;;;;;4992856;28;20224;-56
2022/06/15 01:53:05;;;;;;;9.60;5.15;;;15.50;99.90;;;;;;4992734;28;20513;-56
2022/06/15 01:55:52;;;;;;;10.27;4.35;;;15.60;99.90;;;;;;4993067;28;20168;-56
2022/06/15 01:58:24;;;;;;;10.68;4.60;;;15.60;99.90;;;;;;4992555;28;20179;-56
2022/06/15 02:01:11;;;;;;;7.22;4.75;;;15.60;99.90;;;;;;4975075;28;20205;-56
2022/06/15 02:04:05;;;;;;;6.15;4.07;;;15.60;99.90;;;;;;4992175;28;20698;-56
2022/06/15 02:06:54;;;;;;;10.02;5.20;;;15.60;99.90;;;;;;4992824;28;20171;-55
2022/06/15 02:09:31;;;;;;;10.75;4.90;;;15.60;99.90;;;;;;4962216;28;20271;-56
2022/06/15 02:12:01;;;;;;;7.20;4.93;;;15.50;99.90;;;;;;4992413;28;20545;-57
2022/06/15 02:14:33;;;;;;;7.05;4.10;;;15.30;99.90;;;;;;4992720;28;20526;-56
2022/06/15 02:17:19;;;;;;;10.18;4.75;;;15.40;99.90;;;;;;4992383;28;20175;-56
2022/06/15 02:19:55;;;;;;;5.82;4.53;;;15.30;99.90;;;;;;4992334;28;20607;-56
2022/06/15 02:22:25;;;;;;;5.70;4.60;;;15.30;99.90;;;;;;4992310;28;20188;-56
2022/06/15 02:24:54;;;;;;;6.68;3.85;;;15.30;99.90;;;;;;4992365;28;20583;-56
2022/06/15 02:27:22;;;;;;;10.95;4.90;;;15.20;99.90;;;;;;4992309;28;20176;-57
2022/06/15 02:29:50;;;;;;;5.47;4.40;;;15.20;99.90;;;;;;4992243;28;20642;-57
2022/06/15 02:32:18;;;;;;;8.55;4.63;;;15.00;99.90;;;;;;4992195;28;20218;-57
2022/06/15 02:34:43;;;;;;;6.65;5.05;;;15.00;99.90;;;;;;4992320;28;20676;-56
2022/06/15 02:37:10;;;;;;;8.82;4.85;;;14.90;99.90;;;;;;4992318;28;20169;-57
2022/06/15 02:39:37;;;;;;;9.55;5.30;;;14.90;99.90;;;;;;4992106;28;20204;-56
2022/06/15 02:42:25;;;;;;;6.28;4.75;;;15.00;99.90;;;;;;4992864;28;20180;-56
2022/06/15 02:44:52;;;;;;;7.45;4.70;;;14.90;99.90;;;;;;4992236;28;20219;-55
2022/06/15 02:47:20;;;;;;;8.32;5.13;;;14.80;99.90;;;;;;4993054;28;20200;-56
2022/06/15 02:49:50;;;;;;;6.90;4.88;;;14.70;99.90;;;;;;4995769;28;20217;-55
2022/06/15 02:52:19;;;;;;;10.75;5.47;;;14.70;99.90;;;;;;4996152;28;20195;-55
2022/06/15 02:54:48;;;;;;;7.00;4.68;;;14.70;99.90;;;;;;4996079;28;20526;-55
2022/06/15 02:57:15;;;;;;;6.68;4.97;;;14.80;99.90;;;;;;4996076;28;20176;-55
2022/06/15 02:59:41;;;;;;;7.10;4.90;;;14.70;99.90;;;;;;4995782;28;20732;-55
2022/06/15 03:02:06;;;;;;;9.82;5.13;;;14.70;99.90;;;;;;4995780;28;20267;-55
2022/06/15 03:04:32;;;;;;;9.35;4.80;;;14.70;99.90;;;;;;4996123;28;20197;-55
2022/06/15 03:06:58;;;;;;;9.88;5.05;;;14.70;99.90;;;;;;4995674;28;20638;-55
2022/06/15 03:09:24;;;;;;;6.72;4.80;;;14.70;99.90;;;;;;4995419;28;20666;-55
2022/06/15 03:11:50;;;;;;;7.35;4.60;;;14.80;99.90;;;;;;4995220;28;20612;-55
2022/06/15 03:14:16;;;;;;;6.10;4.60;;;14.70;99.90;;;;;;4978094;28;20177;-55
2022/06/15 03:16:43;;;;;;;7.53;5.70;;;14.60;99.90;;;;;;4995417;28;20168;-55
2022/06/15 03:19:12;;;;;;;8.80;5.20;;;14.60;99.90;;;;;;4995558;28;20185;-55
2022/06/15 03:21:38;;;;;;;10.50;4.88;;;14.70;99.90;;;;;;4995600;28;20222;-56
2022/06/15 03:24:04;;;;;;;6.90;5.25;;;14.60;99.90;;;;;;4995398;28;20639;-56
2022/06/15 03:26:30;;;;;;;8.05;5.28;;;14.70;99.90;;;;;;4978010;28;20661;-55
2022/06/15 03:28:56;;;;;;;12.40;5.07;;;14.70;99.90;;;;;;4995355;28;20177;-55
2022/06/15 03:31:21;;;;;;;8.63;4.95;;;14.70;99.90;;;;;;4995130;28;20192;-55
2022/06/15 03:33:47;;;;;;;8.65;4.80;;;14.70;99.90;;;;;;4977627;28;20173;-56
2022/06/15 03:36:12;;;;;;;6.95;4.93;;;14.80;99.90;;;;;;4977781;28;20176;-55
2022/06/15 03:38:38;;;;;;;9.02;4.75;;;14.70;99.90;;;;;;4995020;28;20164;-55
2022/06/15 03:41:04;;;;;;;9.35;4.80;;;14.70;99.90;;;;;;4995010;28;20223;-55
2022/06/15 03:43:29;;;;;;;4.72;4.28;;;14.70;99.90;;;;;;4995542;28;20227;-55
2022/06/15 03:45:56;;;;;;;9.75;4.57;;;14.70;99.90;;;;;;4994903;28;20179;-55
2022/06/15 03:48:23;;;;;;;8.50;4.85;;;14.80;99.90;;;;;;4994779;28;20169;-55
2022/06/15 03:50:49;;;;;;;10.88;5.10;;;14.70;99.90;;;;;;4994854;28;20173;-55
2022/06/15 03:53:15;;;;;;;8.63;5.47;;;14.70;99.90;;;;;;4994804;28;20585;-55
2022/06/15 03:55:41;;;;;;;8.38;4.82;;;14.60;99.90;;;;;;4995131;28;20177;-56
2022/06/15 03:58:11;;;;;;;6.25;4.93;;;14.70;99.90;;;;;;4994507;28;20642;-56
2022/06/15 04:00:37;;;;;;;9.55;5.05;;;14.60;99.90;;;;;;4993897;28;20573;-56
2022/06/15 04:03:02;;;;;;;14.38;5.78;;;14.70;99.90;;;;;;4994836;28;20165;-55
2022/06/15 04:05:52;;;;;;;8.15;5.38;;;14.60;99.90;;;;;;4994908;28;20177;-55
2022/06/15 04:08:37;;;;;;;9.60;5.72;;;14.70;99.90;;;;;;4994552;28;20202;-55
2022/06/15 04:11:07;;;;;;;10.15;5.55;;;14.80;99.90;;;;;;4994911;28;20230;-55
2022/06/15 04:13:35;;;;;;;9.43;5.22;;;14.70;99.90;;;;;;4994631;28;20264;-56
2022/06/15 04:16:05;;;;;;;11.05;5.15;;;14.80;99.90;;;;;;4994697;28;20580;-56
2022/06/15 04:18:31;;;;;;;10.65;5.05;;;14.90;99.90;;;;;;4994609;28;20665;-55
2022/06/15 04:20:57;;;;;;;6.55;4.65;;;14.90;99.90;;;;;;4994252;28;20248;-54
2022/06/15 04:23:23;;;;;;;7.82;5.35;;;14.90;99.90;;;;;;4994200;28;20826;-55
2022/06/15 04:25:58;;;;;;;11.75;5.55;;;14.80;99.90;;;;;;4994293;28;20172;-55
2022/06/15 04:28:25;;;;;;;8.70;5.45;;;15.00;99.90;;;;;;4994060;28;20718;-55
2022/06/15 04:30:50;;;;;;;11.63;5.43;;;15.00;99.90;;;;;;4994123;28;20173;-55
2022/06/15 04:33:16;;;;;;;11.43;4.32;;;15.20;99.90;;;;;;4994353;28;20179;-56
2022/06/15 04:35:42;;;;;;;8.50;5.45;;;15.50;99.90;;;;;;4993957;28;20566;-55
2022/06/15 04:38:10;;;;;;;12.80;4.90;;;15.80;99.90;;;;;;4993777;28;20581;-55
2022/06/15 04:40:37;;;;;;;5.22;4.05;;;16.00;99.90;;;;;;4994080;28;20626;-56
2022/06/15 04:43:04;;;;;;;9.57;4.90;;;16.10;99.90;;;;;;4993868;28;20156;-55
2022/06/15 04:45:30;;;;;;;7.75;4.38;;;16.20;99.90;;;;;;4976690;28;20176;-56
2022/06/15 04:47:56;;;;;;;7.85;4.43;;;16.30;99.90;;;;;;4993731;28;20169;-55
2022/06/15 04:50:21;;;;;;;9.23;5.15;;;16.50;99.90;;;;;;4993686;28;20227;-55
2022/06/15 04:52:47;;;;;;;10.48;4.25;;;16.60;99.90;;;;;;4993677;28;20282;-56
2022/06/15 04:55:16;;;;;;;7.57;4.03;;;16.70;99.90;;;;;;4993900;28;20215;-55
2022/06/15 04:57:42;;;;;;;9.18;4.97;;;16.70;99.90;;;;;;4993941;28;20263;-56
2022/06/15 05:00:12;;;;;;;6.03;3.78;;;16.90;99.90;;;;;;4993468;28;20709;-56
2022/06/15 05:02:38;;;;;;;9.55;4.82;;;17.00;99.90;;;;;;4993405;28;20184;-55
2022/06/15 05:05:04;;;;;;;6.20;4.63;;;17.00;99.90;;;;;;4993809;28;20530;-56
2022/06/15 05:07:30;;;;;;;9.27;4.72;;;17.00;99.90;;;;;;4994089;28;20243;-55
2022/06/15 05:09:56;;;;;;;7.72;4.63;;;17.10;99.90;;;;;;4993299;28;20693;-56
2022/06/15 05:12:23;;;;;;;8.23;4.53;;;17.20;99.90;;;;;;4993458;28;20218;-56
2022/06/15 05:14:48;;;;;;;9.35;4.40;;;17.20;99.90;;;;;;4993528;28;20537;-56
2022/06/15 05:17:16;;;;;;;8.68;4.88;;;17.30;99.90;;;;;;4993189;28;20182;-55
2022/06/15 05:19:41;;;;;;;11.82;5.22;;;17.50;99.90;;;;;;4992802;28;20216;-55
2022/06/15 05:22:07;;;;;;;10.82;5.07;;;17.50;99.90;;;;;;4993165;28;20259;-55
2022/06/15 05:24:33;;;;;;;10.90;5.05;;;17.50;99.90;;;;;;4993079;28;20165;-55
2022/06/15 05:26:58;;;;;;;7.30;4.75;;;17.70;99.90;;;;;;4993458;28;20510;-56
2022/06/15 05:29:25;;;;;;;12.23;4.72;;;17.80;99.90;;;;;;4992918;28;20179;-56
2022/06/15 05:31:51;;;;;;;7.78;4.43;;;17.70;99.90;;;;;;4992884;28;20525;-56
2022/06/15 05:34:17;;;;;;;7.72;4.30;;;17.80;99.90;;;;;;4992883;28;20168;-57
2022/06/15 05:36:43;;;;;;;9.13;5.22;;;17.90;99.90;;;;;;4992805;28;20164;-56
2022/06/15 05:39:09;;;;;;;8.75;4.65;;;18.00;99.90;;;;;;4992745;28;20635;-56
2022/06/15 05:41:35;;;;;;;11.50;5.15;;;18.10;99.90;;;;;;4992873;28;20264;-57
2022/06/15 05:44:04;;;;;;;7.43;4.57;;;18.20;99.90;;;;;;4993212;28;20184;-56
2022/06/15 05:46:32;;;;;;;9.60;4.68;;;18.30;99.90;;;;;;4993001;28;20187;-56
2022/06/15 05:49:00;;;;;;;10.80;5.13;;;18.50;99.90;;;;;;4992784;28;20212;-56
2022/06/15 05:51:26;;;;;;;9.52;4.38;;;18.50;99.90;;;;;;4992640;28;20183;-56
2022/06/15 05:53:52;;;;;;;9.68;4.88;;;18.60;99.90;;;;;;4992604;28;20172;-57
2022/06/15 05:56:18;;;;;;;9.90;4.20;;;18.70;99.90;;;;;;4992608;28;20176;-55
2022/06/15 05:58:44;;;;;;;12.13;4.47;;;18.60;99.90;;;;;;4992844;28;20517;-57
2022/06/15 06:01:27;;;;;;;10.98;5.00;;;18.60;99.90;;;;;;4992656;28;20208;-56
2022/06/15 06:03:53;;;;;;;10.63;4.80;;;18.60;99.90;;;;;;4992567;28;20169;-56
2022/06/15 06:06:19;;;;;;;14.88;5.03;;;18.20;99.90;;;;;;4992434;28;20173;-57
2022/06/15 06:08:45;;;;;;;7.93;4.80;;;18.50;99.90;;;;;;4992513;28;20243;-57
2022/06/15 06:11:10;;;;;;;7.90;4.38;;;18.40;99.90;;;;;;4992687;28;20172;-56
2022/06/15 06:13:36;;;;;;;10.80;4.97;;;18.50;99.90;;;;;;4992341;28;20661;-57
2022/06/15 06:16:01;;;;;;;6.93;4.65;;;18.60;99.90;;;;;;4993035;28;20164;-56
2022/06/15 06:18:27;;;;;;;9.70;5.03;;;18.70;99.90;;;;;;4992586;28;20539;-56
2022/06/15 06:20:53;;;;;;;11.07;4.68;;;18.60;99.90;;;;;;4992307;28;20303;-57
2022/06/15 06:23:19;;;;;;;8.35;4.20;;;18.70;99.90;;;;;;4994950;28;20175;-57
2022/06/15 06:25:47;;;;;;;9.20;4.50;;;18.70;99.90;;;;;;4996303;28;20568;-56
2022/06/15 06:28:27;;;;;;;6.13;4.35;;;18.60;99.90;;;;;;4996689;28;20169;-57
2022/06/15 06:30:57;;;;;;;14.88;5.20;;;18.90;99.90;;;;;;4996486;28;20181;-57
2022/06/15 06:33:27;;;;;;;10.13;4.78;;;18.90;99.90;;;;;;4996329;28;20526;-55
2022/06/15 06:35:58;;;;;;;9.07;4.85;;;19.00;99.90;;;;;;4996358;28;20260;-55
2022/06/15 06:38:24;;;;;;;9.55;5.30;;;19.10;99.90;;;;;;4996104;28;20173;-55
2022/06/15 06:40:52;;;;;;;9.10;5.38;;;19.00;99.90;;;;;;4996118;28;20262;-55
2022/06/15 06:43:17;;;;;;;9.57;5.28;;;19.10;99.90;;;;;;4996094;28;20192;-56
2022/06/15 06:45:43;;;;;;;8.95;5.18;;;19.10;99.90;;;;;;4994663;28;20169;-56
2022/06/15 06:48:09;;;;;;;5.95;4.90;;;19.20;99.90;;;;;;4995864;28;20255;-54
2022/06/15 06:50:36;;;;;;;6.07;4.63;;;19.20;99.90;;;;;;4987569;28;20232;-54
2022/06/15 06:53:03;;;;;;;7.38;4.57;;;19.50;99.90;;;;;;4995535;28;20173;-56
2022/06/15 06:55:29;;;;;;;9.88;5.25;;;19.60;99.90;;;;;;4995711;28;20256;-56
2022/06/15 06:57:57;;;;;;;7.40;4.88;;;19.70;99.90;;;;;;4995916;28;20284;-53
2022/06/15 07:00:23;;;;;;;6.40;4.25;;;19.80;99.90;;;;;;4995500;28;20611;-54
2022/06/15 07:02:49;;;;;;;6.90;4.30;;;19.90;99.90;;;;;;4995605;28;20532;-56
2022/06/15 07:05:15;;;;;;;11.68;4.57;;;19.90;99.90;;;;;;4995484;28;20180;-55
2022/06/15 07:07:41;;;;;;;7.53;3.88;;;19.90;99.90;;;;;;4995595;28;20164;-54
2022/06/15 07:10:07;;;;;;;7.55;4.07;;;20.00;99.90;;;;;;4995412;28;20169;-54
2022/06/15 07:12:33;;;;;;;8.60;4.18;;;20.10;99.90;;;;;;4995319;28;20197;-54
2022/06/15 07:14:58;;;;;;;7.32;4.13;;;20.00;99.90;;;;;;4995380;28;20176;-54
2022/06/15 07:17:24;;;;;;;5.18;3.30;;;20.20;99.90;;;;;;4995282;28;20168;-54
2022/06/15 07:19:50;;;;;;;7.18;3.55;;;20.20;99.90;;;;;;4995093;28;20251;-54
2022/06/15 07:22:15;;;;;;;7.05;3.72;;;20.30;99.90;;;;;;4995205;28;20175;-54
2022/06/15 07:24:41;;;;;;;7.13;3.55;;;20.40;99.90;;;;;;4995064;28;20569;-54
2022/06/15 07:27:07;;;;;;;5.57;4.03;;;20.60;99.90;;;;;;4994972;28;20943;-54
2022/06/15 07:29:32;;;;;;;7.97;3.75;;;20.70;99.90;;;;;;4994939;28;20173;-54
2022/06/15 07:31:58;;;;;;;9.80;4.25;;;20.70;99.90;;;;;;4995215;28;20169;-54
2022/06/15 07:34:24;;;;;;;5.13;3.85;;;20.90;99.90;;;;;;4993660;28;20218;-54
2022/06/15 07:36:51;;;;;;;10.88;4.68;;;21.00;99.90;;;;;;4994747;28;20610;-54
2022/06/15 07:39:22;;;;;;;9.38;4.45;;;21.20;99.90;;;;;;4994797;28;20169;-54
2022/06/15 07:41:49;;;;;;;7.55;4.05;;;21.20;99.90;;;;;;4995006;28;20300;-54
2022/06/15 07:44:16;;;;;;;9.43;4.60;;;21.30;99.90;;;;;;4994758;28;20164;-54
2022/06/15 07:46:42;;;;;;;10.02;5.15;;;21.20;99.90;;;;;;4994805;28;20223;-54
2022/06/15 07:52:00;;;;;;;8.23;5.43;;;21.60;99.90;;;;;;4994896;28;20689;-54
2022/06/15 07:54:26;;;;;;;8.05;4.40;;;21.60;99.90;;;;;;4994515;28;20165;-54
2022/06/15 07:56:54;;;;;;;9.60;5.07;;;21.70;99.90;;;;;;4994378;28;20247;-54
2022/06/15 07:59:20;;;;;;;10.25;4.90;;;21.90;99.90;;;;;;4994741;28;20172;-54
2022/06/15 08:01:46;;;;;;;7.20;4.07;;;21.90;99.90;;;;;;4994346;28;20231;-54
2022/06/15 08:04:13;;;;;;;6.22;4.60;;;22.00;99.90;;;;;;4994480;28;20176;-54
2022/06/15 08:06:41;;;;;;;8.85;4.50;;;22.00;99.90;;;;;;4994423;28;20164;-54
2022/06/15 08:09:09;;;;;;;7.68;4.65;;;22.10;99.90;;;;;;4994097;28;20653;-54
2022/06/15 08:11:36;;;;;;;8.15;4.13;;;22.00;99.90;;;;;;4994483;28;20180;-54
2022/06/15 08:14:02;;;;;;;9.85;5.00;;;22.20;99.90;;;;;;4994232;28;20196;-53
2022/06/15 08:16:27;;;;;;;10.57;5.07;;;22.20;99.90;;;;;;4994416;28;20172;-54
2022/06/15 08:18:56;;;;;;;13.32;5.57;;;22.20;99.90;;;;;;4994006;28;20168;-55
2022/06/15 08:21:27;;;;;;;10.00;5.40;;;22.30;99.90;;;;;;4994277;28;20204;-54
2022/06/15 08:23:55;;;;;;;11.75;5.05;;;21.20;99.90;;;;;;4994174;28;20161;-54
2022/06/15 08:26:25;;;;;;;10.43;5.25;;;22.50;99.90;;;;;;4994156;28;20600;-54
2022/06/15 08:28:54;;;;;;;11.45;5.05;;;22.50;99.90;;;;;;4994020;28;20193;-55
2022/06/15 08:31:21;;;;;;;10.55;4.85;;;22.80;99.90;;;;;;4994249;28;20177;-54
2022/06/15 08:33:47;;;;;;;8.20;3.45;;;22.80;99.90;;;;;;4993859;28;20512;-55
2022/06/15 08:36:13;;;;;;;7.68;3.63;;;22.80;99.90;;;;;;4993893;28;20176;-54
2022/06/15 08:38:39;;;;;;;9.98;4.13;;;22.90;99.90;;;;;;4993962;28;20224;-54
2022/06/15 08:41:19;;;;;;;8.68;3.85;;;22.90;99.90;;;;;;4993678;28;20212;-54
2022/06/15 08:43:59;;;;;;;7.47;3.17;;;23.00;99.90;;;;;;4992888;28;20172;-55
2022/06/15 08:46:37;;;;;;;5.18;2.88;;;22.80;99.90;;;;;;4973597;28;20172;-54
2022/06/15 08:49:26;;;;;;;6.32;2.60;;;23.10;99.90;;;;;;4974058;28;20308;-54
2022/06/15 08:52:06;;;;;;;11.95;2.97;;;23.30;99.90;;;;;;4974044;28;20551;-54
2022/06/15 08:54:51;;;;;;;7.43;3.42;;;22.90;99.90;;;;;;4973982;28;20176;-54
2022/06/15 08:57:29;;;;;;;9.65;3.38;;;23.40;99.90;;;;;;4974269;28;20200;-54
2022/06/15 09:00:02;;;;;;;4.93;2.67;;;23.30;99.90;;;;;;4973883;28;20628;-54
2022/06/15 09:02:38;;;;;;;9.27;3.67;;;23.30;99.90;;;;;;4974073;28;20323;-54
2022/06/15 09:05:31;;;;;;;6.68;3.50;;;23.60;99.90;;;;;;4973784;28;20256;-54
2022/06/15 09:08:23;;;;;;;6.78;2.90;;;23.70;99.90;;;;;;4974106;28;20169;-54
2022/06/15 09:11:27;;;;;;;6.63;3.20;;;23.70;99.90;;;;;;4973572;28;20169;-54
2022/06/15 09:14:02;;;;;;;9.13;4.13;;;23.90;99.90;;;;;;4953045;28;20285;-54
2022/06/15 09:16:42;;;;;;;7.05;3.05;;;23.90;99.90;;;;;;4973954;28;20169;-54
2022/06/15 09:19:14;;;;;;;6.00;3.00;;;24.00;99.90;;;;;;4973900;28;20201;-55
2022/06/15 09:22:03;;;;;;;9.32;3.50;;;24.10;99.90;;;;;;4973450;28;20244;-54
2022/06/15 09:24:47;;;;;;;8.77;4.85;;;24.30;99.90;;;;;;4973624;28;20249;-54
2022/06/15 09:27:24;;;;;;;6.35;2.60;;;24.20;99.90;;;;;;4973743;28;20184;-55
2022/06/15 09:30:06;;;;;;;6.50;2.60;;;24.40;99.90;;;;;;4973367;28;20169;-54
2022/06/15 09:32:47;;;;;;;6.78;3.40;;;24.60;99.90;;;;;;4973066;28;20169;-55
2022/06/15 09:35:26;;;;;;;8.98;3.40;;;24.60;99.90;;;;;;4973181;28;20260;-54
2022/06/15 09:37:55;;;;;;;7.18;3.20;;;24.80;99.90;;;;;;4973180;28;20165;-54
2022/06/15 09:40:31;;;;;;;7.95;3.20;;;24.80;99.90;;;;;;4972890;28;20709;-54
2022/06/15 09:43:16;;;;;;;6.88;2.78;;;24.90;99.90;;;;;;4973697;28;20165;-54
2022/06/15 09:46:08;;;;;;;8.63;2.95;;;24.80;99.90;;;;;;4973022;28;20169;-54
2022/06/15 09:48:55;;;;;;;10.50;3.20;;;24.60;99.90;;;;;;4973022;28;20236;-54
2022/06/15 09:51:36;;;;;;;6.72;2.85;;;25.00;99.90;;;;;;4973187;28;20244;-54
2022/06/15 09:54:10;;;;;;;4.45;2.70;;;24.90;99.90;;;;;;4972939;28;20228;-55
2022/06/15 09:56:36;;;;;;;8.85;3.00;;;25.20;99.90;;;;;;4972484;28;20221;-54
2022/06/15 09:59:09;;;;;;;6.63;2.97;;;25.30;99.90;;;;;;4972927;28;20173;-54
2022/06/15 10:01:39;;;;;;;9.73;3.15;;;25.40;99.90;;;;;;4972446;28;20205;-55
2022/06/15 10:04:09;;;;;;;9.38;3.72;;;25.50;99.90;;;;;;4991362;28;20169;-54
2022/06/15 10:06:45;;;;;;;6.88;2.90;;;25.60;99.90;;;;;;4991557;28;20200;-54
2022/06/15 10:09:17;;;;;;;7.65;3.55;;;25.70;99.90;;;;;;4992257;28;20175;-55
2022/06/15 10:11:50;;;;;;;14.30;3.30;;;25.80;99.90;;;;;;4992334;28;20231;-54
2022/06/15 10:14:28;;;;;;;9.18;2.88;;;25.80;99.90;;;;;;4992252;28;20184;-55
2022/06/15 10:16:59;;;;;;;6.55;2.88;;;25.80;99.90;;;;;;4991994;28;20630;-54
2022/06/15 10:19:29;;;;;;;7.28;3.25;;;25.80;99.90;;;;;;4992520;28;20231;-55
2022/06/15 10:21:58;;;;;;;5.95;2.90;;;25.90;99.90;;;;;;4991609;28;20175;-54
2022/06/15 10:24:34;;;;;;;9.63;3.35;;;26.00;99.90;;;;;;4991624;28;20169;-54
2022/06/15 10:27:29;;;;;;;6.68;3.00;;;25.90;99.90;;;;;;4974600;28;20172;-54
2022/06/15 10:29:59;;;;;;;8.82;2.95;;;26.00;99.90;;;;;;4991377;28;20264;-55
2022/06/15 10:32:25;;;;;;;7.63;3.20;;;26.10;99.90;;;;;;4991126;28;20672;-54
2022/06/15 10:34:56;;;;;;;6.75;2.90;;;26.20;99.90;;;;;;4992067;28;20577;-54
2022/06/15 10:37:43;;;;;;;8.35;2.80;;;26.10;99.90;;;;;;4991717;28;20172;-54
2022/06/15 10:40:31;;;;;;;11.93;3.28;;;26.20;99.90;;;;;;4991814;28;20604;-55
2022/06/15 10:43:00;;;;;;;12.30;3.08;;;26.30;99.90;;;;;;4992261;28;20177;-55
2022/06/15 10:45:30;;;;;;;7.85;2.90;;;26.50;99.90;;;;;;4991934;28;20165;-55
2022/06/15 10:48:03;;;;;;;6.85;2.70;;;26.40;99.90;;;;;;4992147;28;20172;-55
2022/06/15 10:50:32;;;;;;;3.83;2.70;;;26.50;99.90;;;;;;4974430;28;20274;-55
2022/06/15 10:53:04;;;;;;;6.05;2.65;;;26.30;99.90;;;;;;4992113;28;20223;-55
2022/06/15 11:04:20;;;;;;;4.90;2.38;;;26.70;98.90;;;;;;4992062;28;20537;-55
2022/06/15 11:06:45;;;;;;;6.32;2.60;;;26.70;98.90;;;;;;4991789;28;20204;-55
2022/06/15 11:09:28;;;;;;;7.93;2.50;;;26.70;96.30;;;;;;4993917;28;20330;-54
2022/06/15 11:11:56;;;;;;;12.40;2.85;;;26.80;94.80;;;;;;4995357;28;20600;-55
2022/06/15 11:14:30;;;;;;;4.90;2.58;;;26.90;94.10;;;;;;4994805;28;20171;-55
2022/06/15 11:20:40;;;;;;;6.13;2.67;;;27.10;95.00;;;;;;4994942;28;20227;-55
2022/06/15 11:23:39;;;;;;;4.93;2.58;;;27.40;95.30;;;;;;4993924;28;20160;-55
2022/06/15 11:29:37;;;;;;;3.60;2.72;;;27.50;93.60;;;;;;4993081;28;20231;-55
2022/06/15 11:32:26;;;;;;;5.45;2.70;;;27.70;93.10;;;;;;4958797;28;20262;-55
2022/06/15 11:34:57;;;;;;;4.13;2.60;;;27.50;93.10;;;;;;4993155;28;20167;-55
2022/06/15 11:37:46;;;;;;;4.68;2.42;;;27.80;93.20;;;;;;4993035;28;20530;-55
2022/06/15 11:40:30;;;;;;;9.73;2.92;;;27.80;91.80;;;;;;4975521;28;20192;-54
2022/06/15 11:42:56;;;;;;;5.15;2.42;;;27.70;92.60;;;;;;4993274;28;20600;-54
2022/06/15 11:45:30;;;;;;;6.03;2.78;;;27.90;92.00;;;;;;4993145;28;20168;-55
2022/06/15 11:48:24;;;;;;;8.65;3.25;;;27.80;91.60;;;;;;4993842;28;20553;-55
2022/06/15 11:51:02;;;;;;;4.45;2.60;;;27.90;91.00;;;;;;4994580;28;20338;-55
2022/06/15 11:53:44;;;;;;;5.00;2.72;;;28.10;88.60;;;;;;4994786;28;20172;-55
2022/06/15 11:56:13;;;;;;;8.40;2.63;;;27.80;91.10;;;;;;4994657;28;20219;-55
2022/06/15 11:58:52;;;;;;;5.60;2.70;;;28.00;91.50;;;;;;4994472;28;20156;-55
2022/06/15 12:01:40;;;;;;;5.75;2.20;;;28.20;91.80;;;;;;4994398;28;20210;-55
2022/06/15 12:04:44;;;;;;;5.53;2.80;;;28.10;91.70;;;;;;4994557;28;20255;-55
2022/06/15 12:07:56;;;;;;;7.03;2.90;;;28.20;91.60;;;;;;4976789;28;20176;-55
2022/06/15 12:10:39;;;;;;;6.85;2.80;;;28.10;90.10;;;;;;4975422;28;20172;-55
2022/06/15 12:13:25;;;;;;;5.53;2.90;;;28.30;90.80;;;;;;4994118;28;20681;-54
2022/06/15 12:16:02;;;;;;;5.20;2.55;;;28.10;91.10;;;;;;4993754;28;20641;-55
2022/06/15 12:18:44;;;;;;;5.20;2.83;;;28.20;91.10;;;;;;4994567;28;20263;-55
2022/06/15 12:21:27;;;;;;;6.03;2.72;;;28.30;91.60;;;;;;4993312;28;20673;-55
2022/06/15 12:24:16;;;;;;;6.55;2.72;;;28.30;90.70;;;;;;4993996;28;20696;-55
2022/06/15 12:27:04;;;;;;;4.93;2.55;;;28.40;90.10;;;;;;4993665;28;20744;-55
2022/06/15 12:29:48;;;;;;;5.32;2.47;;;28.50;87.90;;;;;;4993881;28;20700;-55
2022/06/15 12:32:39;;;;;;;8.38;2.80;;;28.80;86.70;;;;;;4994234;28;20180;-55
2022/06/15 12:35:35;;;;;;;6.25;3.25;;;28.70;86.50;;;;;;4993870;28;20175;-55
2022/06/15 12:38:10;;;;;;;5.03;2.45;;;28.40;87.60;;;;;;4993876;28;20649;-55
2022/06/15 12:40:41;;;;;;;7.40;3.28;;;28.30;88.70;;;;;;4993648;28;20214;-55
2022/06/15 12:43:40;;;;;;;4.70;2.75;;;28.40;86.00;;;;;;4993854;28;20164;-55
2022/06/15 12:46:14;;;;;;;7.80;2.90;;;28.60;86.50;;;;;;4993634;28;20198;-55
2022/06/15 12:48:43;;;;;;;4.55;2.50;;;28.70;85.00;;;;;;4993640;28;20219;-55
2022/06/15 12:51:23;;;;;;;9.50;2.88;;;28.80;85.10;;;;;;4993888;28;20168;-54
2022/06/15 12:53:54;;;;;;;12.00;2.75;;;28.80;82.50;;;;;;4993246;28;20219;-54
2022/06/15 12:56:42;;;;;;;7.47;2.30;;;29.00;81.40;;;;;;4993781;28;20179;-55
2022/06/15 12:59:24;;;;;;;3.50;2.83;;;29.20;81.70;;;;;;4993329;28;20565;-55
2022/06/15 13:02:16;;;;;;;5.10;3.17;;;29.00;76.60;;;;;;4975791;28;20208;-55
2022/06/15 13:04:44;;;;;;;6.55;2.90;;;29.20;78.20;;;;;;4993659;28;20630;-55
2022/06/15 13:07:20;;;;;;;6.20;2.88;;;29.20;79.80;;;;;;4993284;28;20168;-55
2022/06/15 13:10:07;;;;;;;5.32;2.58;;;29.40;77.90;;;;;;4993092;28;20164;-55
2022/06/15 13:12:47;;;;;;;4.88;2.72;;;29.30;78.40;;;;;;4993179;28;20206;-55
2022/06/15 13:15:27;;;;;;;5.22;2.67;;;29.40;79.20;;;;;;4993166;28;20194;-55
2022/06/15 13:18:09;;;;;;;5.03;2.45;;;29.30;79.60;;;;;;4992883;28;20641;-55
2022/06/15 13:20:46;;;;;;;5.25;2.50;;;29.30;77.60;;;;;;4992943;28;20345;-55
2022/06/15 13:23:57;;;;;;;7.50;2.75;;;29.40;78.10;;;;;;4991273;28;20540;-55
2022/06/15 13:26:37;;;;;;;5.57;2.35;;;29.20;77.40;;;;;;4982423;28;20212;-55
2022/06/15 13:29:06;;;;;;;7.30;2.60;;;29.10;77.40;;;;;;4975230;28;20180;-55
2022/06/15 13:31:50;;;;;;;8.77;2.85;;;29.30;77.70;;;;;;4975271;28;20231;-55
2022/06/15 13:34:29;;;;;;;4.40;2.58;;;29.10;76.70;;;;;;4992759;28;20630;-55